This is the latest recevied weather packets stored in our database for station/object KO4APQ. If no packets are shown the sender has not sent any weather packets the latest 10 day(s).
| Time | Temp. | Humidity | Pressure | Rain* | Wind** | Luminosity | Snow |
|---|---|---|---|---|---|---|---|
| 1777604062 | 14.44° C | 76% | 1013.2 hPa | 0 mm | - | 0 W/m² | - |
| 1777603760 | 15° C | 76% | 1012.9 hPa | 0 mm | - | 0 W/m² | - |
| 1777603455 | 15° C | 74% | 1013 hPa | 0 mm | - | 0 W/m² | - |
| 1777603152 | 15° C | 68% | 1013 hPa | 0 mm | - | 0 W/m² | - |
| 1777602848 | 15° C | 73% | 1013 hPa | 0 mm | - | 0 W/m² | - |
| 1777602543 | 15° C | 70% | 1013.1 hPa | 0 mm | - | 0 W/m² | - |
| 1777602239 | 15° C | 70% | 1012.9 hPa | 0 mm | - | 0 W/m² | - |
| 1777601935 | 15.56° C | 69% | 1013 hPa | 0 mm | - | 0 W/m² | - |
| 1777601634 | 15.56° C | 69% | 1012.8 hPa | 0 mm | - | 0 W/m² | - |
| 1777601027 | 16.11° C | 64% | 1012.8 hPa | 0 mm | - | 0 W/m² | - |
| 1777600724 | 16.11° C | 62% | 1012.6 hPa | 0 mm | - | 0 W/m² | - |
| 1777600420 | 16.11° C | 62% | 1012.4 hPa | 0 mm | - | 0 W/m² | - |
| 1777586160 | 23.33° C | 43% | 1009.6 hPa | 0 mm | - | 226 W/m² | - |
| 1777585858 | 23.33° C | 40% | 1009.7 hPa | 0 mm | - | 243 W/m² | - |
| 1777584949 | 23.89° C | 39% | 1009.6 hPa | 0 mm | - | 408 W/m² | - |
| 1777584343 | 23.89° C | 42% | 1009.6 hPa | 0 mm | - | 341 W/m² | - |
| 1777584039 | 23.89° C | 46% | 1009.6 hPa | 0 mm | - | 382 W/m² | - |
| 1777583734 | 23.89° C | 48% | 1009.6 hPa | 0 mm | - | 353 W/m² | - |
| 1777583433 | 23.89° C | 45% | 1009.7 hPa | 0 mm | - | 425 W/m² | - |
| 1777583133 | 24.44° C | 49% | 1009.6 hPa | 0 mm | - | 475 W/m² | - |
| 1777582526 | 24.44° C | 49% | 1009.6 hPa | 0 mm | - | 485 W/m² | - |
| 1777582221 | 24.44° C | 49% | 1009.7 hPa | 0 mm | - | 413 W/m² | - |
| 1777581919 | 23.89° C | 52% | 1009.8 hPa | 0 mm | - | 488 W/m² | - |
| 1777581614 | 23.89° C | 52% | 1009.7 hPa | 0 mm | - | 428 W/m² | - |
| 1777581308 | 23.89° C | 51% | 1009.9 hPa | 0 mm | - | 520 W/m² | - |
* Rain latest hour (hover to see other rain measurements)
** Current wind speed in m/s (hover to see current wind gust speed)